Time;durP1;ratioP1;P1;durP2;ratioP2;P2;SDS_P1;SDS_P2;PMS_P1;PMS_P2;Temp;Humidity;BMP_temperature;BMP_pressure;BME280_temperature;BME280_humidity;BME280_pressure;Samples;Min_cycle;Max_cycle;Signal;HPM_P1;HPM_P2
2022/06/20 00:01:04;;;;;;;48.95;12.18;;;;;;;23.94;100.00;97078.16;5008768;28;20037;-57
2022/06/20 00:03:35;;;;;;;43.85;12.52;;;;;;;23.80;100.00;97077.88;5009019;28;20026;-56
2022/06/20 00:06:00;;;;;;;48.30;12.98;;;;;;;23.26;100.00;97075.69;5009225;28;20053;-56
2022/06/20 00:08:26;;;;;;;47.10;13.05;;;;;;;23.67;100.00;97081.00;5009722;28;20026;-57
2022/06/20 00:10:51;;;;;;;49.75;13.68;;;;;;;23.53;100.00;97075.53;5007791;28;20072;-57
2022/06/20 00:13:27;;;;;;;46.90;11.40;;;;;;;23.86;100.00;97081.69;5008327;28;20017;-57
2022/06/20 00:15:56;;;;;;;43.85;11.57;;;;;;;23.82;100.00;97075.84;5010275;28;20653;-58
2022/06/20 00:18:22;;;;;;;43.92;13.15;;;;;;;23.86;100.00;97073.69;5012031;28;20083;-57
2022/06/20 00:20:48;;;;;;;43.25;12.25;;;;;;;23.52;100.00;97074.69;5006563;28;20065;-57
2022/06/20 00:23:14;;;;;;;43.72;12.85;;;;;;;23.72;100.00;97066.34;5009931;28;20033;-57
2022/06/20 00:25:40;;;;;;;35.88;11.40;;;;;;;23.68;100.00;97063.19;5008974;28;20038;-56
2022/06/20 00:28:06;;;;;;;38.08;11.95;;;;;;;23.80;100.00;97066.38;5009810;28;20022;-56
2022/06/20 00:30:32;;;;;;;49.78;12.68;;;;;;;23.68;100.00;97064.03;5009497;28;20081;-58
2022/06/20 00:32:57;;;;;;;50.05;12.10;;;;;;;23.82;100.00;97064.34;5007898;28;20048;-56
2022/06/20 00:35:23;;;;;;;43.20;12.48;;;;;;;23.27;100.00;97066.72;5008172;28;20034;-57
2022/06/20 00:37:50;;;;;;;37.15;12.02;;;;;;;23.22;100.00;97063.72;5008698;28;20110;-57
2022/06/20 00:40:35;;;;;;;47.85;12.38;;;;;;;23.41;100.00;97067.88;5007515;28;20024;-59
2022/06/20 00:43:02;;;;;;;39.58;11.45;;;;;;;23.46;100.00;97070.03;5010396;28;20025;-59
2022/06/20 00:45:32;;;;;;;45.25;12.73;;;;;;;23.41;100.00;97062.53;5008048;28;20042;-57
2022/06/20 00:48:10;;;;;;;48.38;12.13;;;;;;;23.33;100.00;97061.72;5008259;28;20036;-57
2022/06/20 00:50:36;;;;;;;48.85;12.07;;;;;;;23.45;100.00;97066.56;5006679;28;20466;-57
2022/06/20 00:53:07;;;;;;;48.45;11.98;;;;;;;23.64;100.00;97062.72;5007366;28;20037;-58
2022/06/20 00:55:57;;;;;;;44.75;12.38;;;;;;;23.34;100.00;97072.19;5009464;28;20547;-57
2022/06/20 00:58:30;;;;;;;45.70;11.90;;;;;;;23.09;100.00;97069.53;5008871;28;20671;-57
2022/06/20 01:00:56;;;;;;;41.03;11.90;;;;;;;23.36;100.00;97075.53;5007582;28;20127;-56
2022/06/20 01:03:25;;;;;;;39.88;11.82;;;;;;;23.40;100.00;97065.41;5007128;28;20036;-57
2022/06/20 01:05:56;;;;;;;46.70;12.32;;;;;;;23.21;100.00;97066.53;5009732;28;20069;-57
2022/06/20 01:08:29;;;;;;;42.13;11.40;;;;;;;23.39;100.00;97063.72;5007319;28;20033;-57
2022/06/20 01:11:03;;;;;;;43.65;12.05;;;;;;;23.26;100.00;97059.72;5006084;28;20104;-58
2022/06/20 01:13:29;;;;;;;42.28;11.43;;;;;;;23.25;100.00;97047.44;5008354;28;20938;-57
2022/06/20 01:16:00;;;;;;;43.13;12.10;;;;;;;23.37;100.00;97041.78;5008027;28;20046;-57
2022/06/20 01:18:31;;;;;;;40.75;11.18;;;;;;;23.44;100.00;97045.44;5009555;28;20021;-57
2022/06/20 01:20:59;;;;;;;40.55;11.75;;;;;;;23.32;100.00;97052.91;5007481;28;20081;-57
2022/06/20 01:23:43;;;;;;;43.80;12.32;;;;;;;23.18;100.00;97051.75;5007792;28;20034;-57
2022/06/20 01:26:32;;;;;;;44.75;11.85;;;;;;;23.16;100.00;97050.22;5006563;28;20077;-57
2022/06/20 01:29:02;;;;;;;55.22;12.82;;;;;;;22.87;100.00;97055.00;5009219;28;20044;-57
2022/06/20 01:31:33;;;;;;;44.13;12.27;;;;;;;23.04;100.00;97055.06;5004743;28;20666;-57
2022/06/20 01:34:01;;;;;;;38.92;12.13;;;;;;;23.07;100.00;97060.88;5007439;28;20606;-58
2022/06/20 01:39:17;;;;;;;47.88;12.43;;;;;;;22.97;100.00;97054.84;5008969;28;20037;-57
2022/06/20 01:44:31;;;;;;;42.88;11.57;;;;;;;22.94;100.00;97067.63;5007581;28;20040;-56
2022/06/20 01:46:56;;;;;;;39.35;11.50;;;;;;;22.94;100.00;97075.59;5007405;28;20260;-56
2022/06/20 01:49:24;;;;;;;48.53;12.55;;;;;;;23.00;100.00;97080.28;5009012;28;20029;-56
2022/06/20 01:51:58;;;;;;;42.67;11.82;;;;;;;22.44;100.00;97091.44;5007526;28;20037;-56
2022/06/20 01:54:28;;;;;;;44.80;12.63;;;;;;;22.20;100.00;97086.78;5008315;28;20940;-56
2022/06/20 01:56:54;;;;;;;35.08;11.98;;;;;;;22.19;100.00;97092.28;5015414;28;20164;-56
2022/06/20 01:59:24;;;;;;;44.88;13.02;;;;;;;22.45;100.00;97090.41;5007353;28;20153;-57
2022/06/20 02:01:51;;;;;;;47.30;13.40;;;;;;;22.09;100.00;97087.91;5005906;28;20039;-56
2022/06/20 02:04:20;;;;;;;52.42;13.55;;;;;;;22.45;100.00;97093.06;5005411;28;20116;-56
2022/06/20 02:06:47;;;;;;;43.28;12.02;;;;;;;22.44;100.00;97102.06;5015031;28;20141;-56
2022/06/20 02:09:13;;;;;;;41.03;11.55;;;;;;;22.79;100.00;97102.00;5007359;28;20108;-56
2022/06/20 02:11:41;;;;;;;46.50;13.45;;;;;;;22.57;100.00;97095.44;5005759;28;20038;-57
2022/06/20 02:14:21;;;;;;;49.38;13.45;;;;;;;22.47;100.00;97090.25;5007717;28;20037;-56
2022/06/20 02:16:59;;;;;;;41.53;11.88;;;;;;;22.51;100.00;97086.28;5006126;28;20133;-57
2022/06/20 02:19:32;;;;;;;48.92;12.50;;;;;;;22.28;100.00;97083.38;5007308;28;20030;-56
2022/06/20 02:22:01;;;;;;;41.90;12.05;;;;;;;22.21;100.00;97082.31;5006099;28;20066;-56
2022/06/20 02:24:31;;;;;;;46.58;11.93;;;;;;;22.33;100.00;97086.38;5014084;28;20509;-56
2022/06/20 02:27:01;;;;;;;31.85;10.38;;;;;;;22.86;100.00;97090.53;5004545;28;20522;-56
2022/06/20 02:29:29;;;;;;;44.85;12.45;;;;;;;22.49;100.00;97093.59;5005003;28;20061;-56
2022/06/20 02:31:59;;;;;;;35.55;11.55;;;;;;;22.36;100.00;97104.66;5005585;28;20038;-56
2022/06/20 02:34:28;;;;;;;37.97;11.30;;;;;;;21.96;100.00;97103.41;5007321;28;20025;-56
2022/06/20 02:36:55;;;;;;;48.60;13.02;;;;;;;21.42;100.00;97110.63;5006110;28;20038;-56
2022/06/20 02:39:23;;;;;;;44.80;13.25;;;;;;;21.69;100.00;97105.22;5005075;28;20029;-56
2022/06/20 02:41:56;;;;;;;48.08;12.73;;;;;;;21.86;100.00;97105.34;5004444;28;20045;-57
2022/06/20 02:44:24;;;;;;;46.72;12.85;;;;;;;22.02;100.00;97107.25;5007031;28;20030;-56
2022/06/20 02:46:51;;;;;;;55.35;14.90;;;;;;;21.58;100.00;97110.78;5006632;28;20049;-56
2022/06/20 02:49:21;;;;;;;38.70;12.80;;;;;;;21.66;100.00;97105.53;5006915;28;20029;-57
2022/06/20 02:51:50;;;;;;;54.10;13.90;;;;;;;21.84;100.00;97104.69;5003455;28;20924;-56
2022/06/20 02:54:20;;;;;;;48.90;13.15;;;;;;;21.67;100.00;97101.91;5006592;28;20021;-57
2022/06/20 02:56:51;;;;;;;49.80;13.35;;;;;;;21.82;100.00;97106.66;5002437;28;20597;-56
2022/06/20 02:59:22;;;;;;;51.60;13.50;;;;;;;21.94;100.00;97094.78;5003194;28;20068;-57
2022/06/20 03:02:02;;;;;;;45.23;13.30;;;;;;;22.13;100.00;97088.44;5004148;28;20129;-56
2022/06/20 03:04:32;;;;;;;46.20;13.23;;;;;;;22.12;100.00;97087.56;5006051;28;20062;-57
2022/06/20 03:07:03;;;;;;;48.03;12.98;;;;;;;22.33;100.00;97086.38;5004673;28;20053;-57
2022/06/20 03:09:32;;;;;;;50.65;13.38;;;;;;;22.23;100.00;97081.16;5005498;28;20025;-57
2022/06/20 03:12:01;;;;;;;47.45;13.40;;;;;;;21.88;100.00;97074.16;5005483;28;20095;-56
2022/06/20 03:14:33;;;;;;;44.75;13.02;;;;;;;21.99;100.00;97071.25;5005963;28;20036;-57
2022/06/20 03:16:59;;;;;;;48.08;13.32;;;;;;;21.74;100.00;97068.44;5005294;28;20140;-57
2022/06/20 03:19:31;;;;;;;52.45;13.57;;;;;;;21.55;100.00;97061.50;5005820;28;20033;-57
2022/06/20 03:21:57;;;;;;;;;;;;;;;21.83;100.00;97052.56;5003418;28;20037;-57
2022/06/20 03:24:28;;;;;;;44.85;13.02;;;;;;;21.79;100.00;97043.25;5005072;28;19921;-57
2022/06/20 03:26:54;;;;;;;46.17;13.07;;;;;;;21.89;100.00;97046.63;5004367;28;20042;-57
2022/06/20 03:29:21;;;;;;;43.08;13.07;;;;;;;21.97;100.00;97041.38;5003731;28;20269;-58
2022/06/20 03:31:46;;;;;;;46.55;13.23;;;;;;;22.11;100.00;97046.09;5002147;28;20080;-56
2022/06/20 03:34:12;;;;;;;44.53;13.50;;;;;;;22.05;100.00;97059.97;5005299;28;20061;-57
2022/06/20 03:36:41;;;;;;;37.33;12.02;;;;;;;22.19;100.00;97044.47;5006555;28;20033;-58
2022/06/20 03:39:07;;;;;;;44.80;13.38;;;;;;;21.58;100.00;97052.41;5003524;28;20128;-55
2022/06/20 03:41:34;;;;;;;42.35;12.65;;;;;;;21.59;100.00;97059.38;5002924;28;20034;-57
2022/06/20 03:44:08;;;;;;;42.08;12.05;;;;;;;22.05;100.00;97052.00;5005231;28;20021;-56
2022/06/20 03:47:06;;;;;;;42.47;11.63;;;;;;;22.59;100.00;97061.56;5004999;28;20041;-57
2022/06/20 03:49:39;;;;;;;41.45;12.88;;;;;;;21.81;100.00;97062.50;5004511;28;20041;-57
2022/06/20 03:52:10;;;;;;;37.58;11.60;;;;;;;22.14;100.00;97048.41;5004628;28;20063;-57
2022/06/20 03:54:45;;;;;;;39.85;11.50;;;;;;;22.48;100.00;97055.56;5004345;28;20048;-58
2022/06/20 03:57:27;;;;;;;47.80;11.93;;;;;;;22.50;100.00;97048.25;5004339;28;20041;-58
2022/06/20 04:00:00;;;;;;;44.17;11.90;;;;;;;22.77;100.00;97056.97;5006072;28;20021;-56
2022/06/20 04:02:41;;;;;;;42.85;12.68;;;;;;;22.47;100.00;97063.69;5005699;28;20044;-57
2022/06/20 04:05:16;;;;;;;45.10;12.73;;;;;;;22.27;100.00;97061.28;5007136;28;20160;-57
2022/06/20 04:08:06;;;;;;;39.15;12.50;;;;;;;22.34;100.00;97069.44;5004556;28;20034;-56
2022/06/20 04:13:40;;;;;;;43.20;12.90;;;;;;;22.09;100.00;97076.44;5003640;28;20087;-56
2022/06/20 04:16:13;;;;;;;39.65;13.15;;;;;;;22.13;100.00;97083.94;5005273;28;20045;-57
2022/06/20 04:18:53;;;;;;;51.47;15.00;;;;;;;22.39;100.00;97085.75;5005453;28;20025;-57
2022/06/20 04:21:26;;;;;;;47.83;15.70;;;;;;;22.39;100.00;97090.25;5005697;28;20666;-57
2022/06/20 04:24:12;;;;;;;46.17;14.27;;;;;;;22.10;100.00;97094.88;5005145;28;20100;-57
2022/06/20 04:26:55;;;;;;;40.35;14.93;;;;;;;22.29;100.00;97104.44;5003366;28;20794;-57
2022/06/20 04:29:34;;;;;;;45.35;15.88;;;;;;;22.49;100.00;97099.72;5004371;28;20594;-57
2022/06/20 04:32:03;;;;;;;49.75;16.38;;;;;;;22.38;100.00;97113.28;5005014;28;20088;-57
2022/06/20 04:34:35;;;;;;;48.80;16.27;;;;;;;22.57;100.00;97119.34;5003154;28;20088;-56
2022/06/20 04:37:21;;;;;;;;;;;;;;;22.64;100.00;97137.16;5006513;28;20050;-57
2022/06/20 04:40:05;;;;;;;43.90;14.60;;;;;;;22.62;100.00;97164.91;4997888;28;20630;-57
2022/06/20 04:42:40;;;;;;;39.55;14.63;;;;;;;22.84;100.00;97187.41;5007668;28;20962;-57
2022/06/20 04:45:15;;;;;;;49.38;14.98;;;;;;;22.69;100.00;97180.03;5007006;28;20033;-56
2022/06/20 04:47:43;;;;;;;42.70;15.15;;;;;;;22.69;100.00;97174.72;5009267;28;20633;-57
2022/06/20 04:50:27;;;;;;;54.72;16.10;;;;;;;23.07;100.00;97183.22;5007540;28;20034;-58
2022/06/20 04:52:59;;;;;;;42.78;14.77;;;;;;;23.08;100.00;97174.22;5009371;28;20034;-58
2022/06/20 04:55:27;;;;;;;38.28;14.07;;;;;;;23.24;100.00;97175.28;5006528;28;20045;-56
2022/06/20 04:57:55;;;;;;;41.45;14.65;;;;;;;24.47;100.00;97174.47;5008346;28;20018;-57
2022/06/20 05:00:25;;;;;;;38.28;13.55;;;;;;;24.98;100.00;97183.78;5006386;28;20605;-57
2022/06/20 05:02:54;;;;;;;36.70;13.52;;;;;;;25.31;100.00;97212.16;5007538;28;20026;-59
2022/06/20 05:05:24;;;;;;;34.90;13.30;;;;;;;24.61;100.00;97203.09;5008067;28;20033;-57
2022/06/20 05:07:50;;;;;;;37.35;13.35;;;;;;;24.96;100.00;97200.97;5008326;28;20064;-57
2022/06/20 05:10:18;;;;;;;42.75;13.23;;;;;;;25.09;100.00;97206.59;5006679;28;20045;-56
2022/06/20 05:12:48;;;;;;;33.50;11.80;;;;;;;25.75;100.00;97212.41;5009368;28;20025;-57
2022/06/20 05:15:21;;;;;;;31.38;11.18;;;;;;;26.34;100.00;97206.41;5010047;28;20021;-58
2022/06/20 05:17:48;;;;;;;31.38;10.60;;;;;;;25.85;100.00;97185.44;5007588;28;20040;-58
2022/06/20 05:20:26;;;;;;;35.13;10.43;;;;;;;25.76;100.00;97198.00;5004185;28;20115;-57
2022/06/20 05:23:03;;;;;;;32.72;10.00;;;;;;;25.42;100.00;97202.94;5006222;28;20037;-57
2022/06/20 05:25:32;;;;;;;30.08;9.75;;;;;;;26.10;100.00;97182.56;5008890;28;20049;-57
2022/06/20 05:28:02;;;;;;;32.60;9.52;;;;;;;25.29;100.00;97179.47;5008447;28;20462;-57
2022/06/20 05:30:33;;;;;;;38.45;10.02;;;;;;;25.41;100.00;97186.09;5007249;28;20071;-56
2022/06/20 05:33:22;;;;;;;29.63;9.10;;;;;;;25.59;100.00;97186.63;5004511;28;20056;-57
2022/06/20 05:35:47;;;;;;;31.08;8.98;;;;;;;25.06;100.00;97196.25;5005643;28;20076;-58
2022/06/20 05:38:34;;;;;;;32.10;9.60;;;;;;;25.33;100.00;97202.16;5007092;28;20631;-58
2022/06/20 05:41:02;;;;;;;33.55;9.02;;;;;;;25.02;100.00;97226.97;5008153;28;20363;-58
2022/06/20 05:43:31;;;;;;;30.42;9.20;;;;;;;25.03;100.00;97241.94;5008097;28;20072;-59
2022/06/20 05:46:03;;;;;;;28.40;8.93;;;;;;;25.15;100.00;97240.56;5007274;28;20084;-59
2022/06/20 05:48:39;;;;;;;34.90;9.10;;;;;;;25.77;100.00;97241.59;5015803;28;20022;-58
2022/06/20 05:51:08;;;;;;;36.65;9.68;;;;;;;26.94;100.00;97238.56;5006910;28;20371;-58
2022/06/20 05:53:45;;;;;;;30.00;8.63;;;;;;;28.84;100.00;97215.91;5005364;28;20480;-55
2022/06/20 05:56:17;;;;;;;30.45;8.43;;;;;;;27.92;100.00;97247.19;5007655;28;20037;-56
2022/06/20 05:58:45;;;;;;;34.95;8.93;;;;;;;27.18;100.00;97233.91;5008279;28;20185;-55
2022/06/20 06:01:16;;;;;;;31.17;8.05;;;;;;;25.54;100.00;97189.00;5006213;28;20038;-56
2022/06/20 06:03:50;;;;;;;29.95;8.50;;;;;;;25.44;100.00;97161.72;5007116;28;20062;-56
2022/06/20 06:06:23;;;;;;;27.58;7.57;;;;;;;26.09;100.00;97155.03;5006149;28;20531;-55
2022/06/20 06:08:55;;;;;;;26.15;7.88;;;;;;;26.19;100.00;97208.22;5006846;28;20021;-56
2022/06/20 06:11:36;;;;;;;27.70;7.93;;;;;;;23.84;100.00;97286.06;5007197;28;20041;-56
2022/06/20 06:14:22;;;;;;;26.10;7.50;;;;;;;23.98;100.00;97306.69;5006578;28;20069;-56
2022/06/20 06:17:00;;;;;;;28.50;8.02;;;;;;;23.66;100.00;97289.63;5008129;28;20754;-58
2022/06/20 06:19:25;;;;;;;30.40;8.13;;;;;;;23.40;100.00;97262.31;5005788;28;20500;-55
2022/06/20 06:21:58;;;;;;;29.63;8.50;;;;;;;24.04;100.00;97298.06;5006572;28;20041;-55
2022/06/20 06:24:25;;;;;;;31.40;7.97;;;;;;;24.02;100.00;97334.69;5007327;28;20103;-56
2022/06/20 06:26:55;;;;;;;27.75;8.35;;;;;;;23.77;100.00;97348.91;5006833;28;20042;-56
2022/06/20 06:29:41;;;;;;;29.80;8.30;;;;;;;23.60;100.00;97330.22;5010327;28;20018;-57
2022/06/20 06:32:23;;;;;;;33.90;8.93;;;;;;;24.00;100.00;97334.00;5003741;28;20036;-56
2022/06/20 06:35:07;;;;;;;30.55;8.00;;;;;;;23.89;100.00;97326.31;5007378;28;20076;-57
2022/06/20 06:37:44;;;;;;;30.95;7.90;;;;;;;24.80;100.00;97336.03;5008078;28;20730;-56
2022/06/20 06:40:18;;;;;;;38.78;9.23;;;;;;;24.16;100.00;97338.53;5005143;28;20034;-57
2022/06/20 06:42:46;;;;;;;34.70;8.57;;;;;;;23.70;100.00;97342.56;5005901;28;20057;-56
2022/06/20 06:45:21;;;;;;;31.02;8.57;;;;;;;24.41;100.00;97347.38;5006956;28;20109;-57
2022/06/20 06:47:56;;;;;;;27.10;7.72;;;;;;;24.88;100.00;97374.38;5007965;28;20040;-56
2022/06/20 06:50:37;;;;;;;36.35;8.82;;;;;;;24.31;100.00;97377.84;5004784;28;20734;-57
2022/06/20 06:53:20;;;;;;;32.83;8.52;;;;;;;24.29;100.00;97363.84;5007606;28;20025;-58
2022/06/20 06:55:51;;;;;;;31.52;8.43;;;;;;;24.09;100.00;97348.16;5004969;28;20053;-57
2022/06/20 06:58:38;;;;;;;31.17;8.53;;;;;;;23.84;100.00;97360.63;5006164;28;20026;-56
2022/06/20 07:01:14;;;;;;;37.00;9.65;;;;;;;22.72;100.00;97357.00;5004362;28;20261;-58
2022/06/20 07:03:48;;;;;;;34.35;9.48;;;;;;;22.68;100.00;97355.63;5006337;28;20026;-59
2022/06/20 07:06:40;;;;;;;37.13;9.15;;;;;;;22.86;100.00;97329.81;5008159;28;20048;-58
2022/06/20 07:09:15;;;;;;;36.78;10.63;;;;;;;22.54;100.00;97334.94;5005524;28;20056;-57
2022/06/20 07:11:54;;;;;;;47.10;10.23;;;;;;;22.26;100.00;97306.66;5005117;28;20091;-58
2022/06/20 07:14:22;;;;;;;37.08;10.80;;;;;;;22.10;100.00;97280.75;5006251;28;20991;-57
2022/06/20 07:17:23;;;;;;;29.92;8.88;;;;;;;22.40;100.00;97281.34;5006182;28;20045;-57
2022/06/20 07:19:51;;;;;;;35.75;10.00;;;;;;;22.34;100.00;97287.28;4984044;28;20071;-57
2022/06/20 07:22:19;;;;;;;31.88;10.20;;;;;;;22.14;100.00;97260.03;5005809;28;20117;-57
2022/06/20 07:24:46;;;;;;;36.92;10.40;;;;;;;22.68;100.00;97246.63;5006094;28;20033;-59
2022/06/20 07:27:19;;;;;;;40.90;10.25;;;;;;;22.89;100.00;97260.38;5006195;28;20734;-57
2022/06/20 07:29:51;;;;;;;35.33;9.32;;;;;;;23.23;100.00;97278.22;5005382;28;20220;-57
2022/06/20 07:32:25;;;;;;;31.88;9.27;;;;;;;22.92;100.00;97277.88;5005769;28;20041;-57
2022/06/20 07:35:01;;;;;;;32.63;9.93;;;;;;;23.40;100.00;97288.91;5006734;28;20037;-58
2022/06/20 07:37:35;;;;;;;46.92;10.95;;;;;;;23.97;100.00;97291.72;5004970;28;20069;-58
2022/06/20 07:40:18;;;;;;;35.35;9.60;;;;;;;24.06;100.00;97321.88;5005104;28;20026;-57
2022/06/20 07:42:52;;;;;;;34.72;9.88;;;;;;;24.28;100.00;97357.69;5006156;28;20045;-58
2022/06/20 07:45:22;;;;;;;29.00;8.80;;;;;;;23.89;100.00;97323.66;5005494;28;20025;-58
2022/06/20 07:47:55;;;;;;;32.60;9.38;;;;;;;24.74;100.00;97288.72;5006860;28;20117;-57
2022/06/20 07:50:30;;;;;;;34.75;9.40;;;;;;;24.51;100.00;97269.06;5004901;28;20522;-57
2022/06/20 07:53:04;;;;;;;36.45;10.23;;;;;;;23.35;100.00;97248.63;5004765;28;20172;-57
2022/06/20 07:55:32;;;;;;;32.83;9.88;;;;;;;23.95;100.00;97240.47;5004835;28;20025;-57
2022/06/20 07:58:07;;;;;;;33.83;9.30;;;;;;;24.55;100.00;97225.09;5005546;28;20475;-57
2022/06/20 08:00:47;;;;;;;32.17;9.15;;;;;;;25.84;100.00;97231.84;5004658;28;20131;-58
2022/06/20 08:03:39;;;;;;;31.67;9.27;;;;;;;26.59;100.00;97256.94;5014051;28;20121;-58
2022/06/20 08:06:20;;;;;;;35.70;9.00;;;;;;;25.54;100.00;97253.06;5004097;28;20100;-57
2022/06/20 08:08:57;;;;;;;33.05;9.10;;;;;;;25.04;100.00;97240.13;5006771;28;20249;-58
2022/06/20 08:11:40;;;;;;;25.73;7.70;;;;;;;26.00;100.00;97286.22;5004822;28;20071;-58
2022/06/20 08:14:16;;;;;;;31.55;8.40;;;;;;;25.81;100.00;97338.25;5003499;28;20044;-57
2022/06/20 08:16:44;;;;;;;27.30;7.68;;;;;;;26.11;100.00;97392.69;5008520;28;20042;-56
2022/06/20 08:19:10;;;;;;;30.58;8.75;;;;;;;25.05;100.00;97402.69;5008429;28;20017;-58
2022/06/20 08:21:44;;;;;;;26.90;7.82;;;;;;;24.54;100.00;97410.88;5009260;28;20046;-56
2022/06/20 08:24:19;;;;;;;38.80;9.82;;;;;;;24.29;100.00;97386.00;5010151;28;20053;-57
2022/06/20 08:26:58;;;;;;;35.97;9.77;;;;;;;23.92;100.00;97432.53;5009732;28;20045;-57
2022/06/20 08:29:58;;;;;;;35.88;9.77;;;;;;;23.25;100.00;97403.91;5009001;28;20030;-56
2022/06/20 08:32:29;;;;;;;34.90;10.27;;;;;;;22.58;100.00;97346.91;4997730;28;20396;-57
2022/06/20 08:35:20;;;;;;;33.57;9.63;;;;;;;23.40;100.00;97327.00;5008382;28;20128;-56
2022/06/20 08:37:52;;;;;;;30.20;8.75;;;;;;;23.51;100.00;97349.81;5008998;28;20069;-57
2022/06/20 08:40:42;;;;;;;36.20;10.20;;;;;;;23.56;100.00;97387.41;5007495;28;20084;-56
2022/06/20 08:43:56;;;;;;;29.67;8.48;;;;;;;24.00;100.00;97429.88;5011158;28;20037;-57
2022/06/20 08:46:43;;;;;;;28.75;8.75;;;;;;;24.11;100.00;97419.94;5008040;28;20443;-58
2022/06/20 08:49:35;;;;;;;40.58;9.73;;;;;;;24.21;100.00;97383.34;5006779;28;20037;-56
2022/06/20 08:52:10;;;;;;;35.78;9.40;;;;;;;24.78;100.00;97380.72;5009027;28;20523;-57
2022/06/20 08:55:09;;;;;;;31.17;8.65;;;;;;;25.19;100.00;97353.13;5011191;28;20042;-57
2022/06/20 08:57:47;;;;;;;28.55;8.35;;;;;;;25.41;100.00;97350.75;5007877;28;20038;-57
2022/06/20 09:00:17;;;;;;;37.72;9.25;;;;;;;25.82;100.00;97355.91;5008448;28;20761;-59
2022/06/20 09:03:01;;;;;;;31.30;8.48;;;;;;;26.23;100.00;97329.81;5007388;28;20033;-56
2022/06/20 09:06:07;;;;;;;30.15;8.90;;;;;;;25.87;100.00;97335.69;5008175;28;20946;-56
2022/06/20 09:08:48;;;;;;;28.42;7.95;;;;;;;26.88;100.00;97340.97;5007144;28;20121;-57
2022/06/20 09:11:22;;;;;;;;;;;;;;;28.25;100.00;97332.41;5008470;28;20061;-56
2022/06/20 09:13:50;;;;;;;27.65;8.45;;;;;;;26.55;100.00;97336.72;5007917;28;20016;-57
2022/06/20 09:16:46;;;;;;;30.33;7.43;;;;;;;27.23;100.00;97349.31;5007299;28;20045;-57
2022/06/20 09:19:24;;;;;;;26.25;8.40;;;;;;;26.80;100.00;97359.75;5008199;28;20033;-57
2022/06/20 09:22:27;;;;;;;25.67;7.22;;;;;;;28.31;100.00;97353.13;5005980;28;20030;-57
2022/06/20 09:24:55;;;;;;;25.52;7.38;;;;;;;30.25;100.00;97365.09;5010267;28;20446;-57
2022/06/20 09:27:46;;;;;;;22.48;7.22;;;;;;;30.10;100.00;97363.38;5006813;28;20129;-58
2022/06/20 09:30:20;;;;;;;23.60;7.50;;;;;;;30.43;100.00;97362.66;5007244;28;20021;-58
2022/06/20 09:33:04;;;;;;;24.55;6.63;;;;;;;31.48;100.00;97364.69;5008808;28;20348;-58
2022/06/20 09:36:07;;;;;;;22.65;7.13;;;;;;;31.95;92.64;97359.13;5006744;28;20121;-57
2022/06/20 09:38:50;;;;;;;24.17;6.95;;;;;;;31.48;87.84;97367.41;5011580;28;20081;-57
2022/06/20 09:41:49;;;;;;;19.98;6.65;;;;;;;32.40;77.83;97368.00;5005850;28;20049;-58
2022/06/20 09:44:33;;;;;;;20.67;6.55;;;;;;;32.76;75.46;97368.44;5007081;28;20037;-57
2022/06/20 09:47:08;;;;;;;24.00;7.00;;;;;;;31.96;71.75;97372.38;5008315;28;20049;-58
2022/06/20 09:49:46;;;;;;;22.15;7.15;;;;;;;32.13;72.39;97361.13;5007307;28;20030;-57
2022/06/20 09:52:17;;;;;;;23.70;6.68;;;;;;;31.74;69.47;97362.97;5007664;28;20068;-57
2022/06/20 09:54:59;;;;;;;22.02;6.22;;;;;;;33.30;63.98;97349.88;5008842;28;20495;-57
2022/06/20 09:57:33;;;;;;;26.17;6.55;;;;;;;32.25;65.33;97340.53;5007339;28;20564;-57
2022/06/20 10:00:19;;;;;;;20.52;6.85;;;;;;;32.56;67.93;97333.44;5007322;28;20929;-57
2022/06/20 10:02:44;;;;;;;20.38;6.15;;;;;;;32.65;62.14;97327.59;5006792;28;20071;-56
2022/06/20 10:05:28;;;;;;;23.23;5.90;;;;;;;32.87;61.57;97323.69;5008550;28;20029;-56
2022/06/20 10:08:29;;;;;;;21.83;6.10;;;;;;;33.93;57.88;97317.09;5007443;28;20267;-57
2022/06/20 10:11:07;;;;;;;21.77;6.65;;;;;;;33.96;57.16;97316.63;5005853;28;20038;-57
2022/06/20 10:14:00;;;;;;;21.73;6.10;;;;;;;32.62;58.62;97313.69;5007618;28;20036;-58
2022/06/20 10:16:38;;;;;;;23.42;6.55;;;;;;;34.93;54.35;97314.75;5006599;28;20120;-57
2022/06/20 10:19:29;;;;;;;19.35;6.05;;;;;;;34.21;54.74;97314.84;5005825;28;20475;-57
2022/06/20 10:22:23;;;;;;;22.00;6.35;;;;;;;34.93;53.89;97309.31;5003912;28;20041;-57
2022/06/20 10:24:57;;;;;;;17.73;5.82;;;;;;;33.88;53.99;97319.66;4999364;28;20793;-58
2022/06/20 10:27:45;;;;;;;20.10;5.65;;;;;;;34.17;52.79;97312.63;5005704;28;20046;-58
2022/06/20 10:30:37;;;;;;;23.20;6.07;;;;;;;33.44;54.41;97308.13;5004498;28;20156;-58
2022/06/20 10:33:29;;;;;;;21.35;5.95;;;;;;;33.85;53.21;97322.81;5007067;28;20026;-59
2022/06/20 10:36:18;;;;;;;22.33;6.45;;;;;;;34.32;52.10;97330.31;5005284;28;20496;-58
2022/06/20 10:39:11;;;;;;;23.92;6.55;;;;;;;33.38;52.14;97320.66;5008788;28;20025;-57
2022/06/20 10:41:55;;;;;;;23.05;6.20;;;;;;;32.83;54.35;97332.22;5002035;28;20068;-57
2022/06/20 10:44:23;;;;;;;21.70;6.18;;;;;;;31.78;55.91;97337.22;5008162;28;20153;-57
2022/06/20 10:47:07;;;;;;;23.08;6.38;;;;;;;32.73;54.32;97339.16;5006559;28;20045;-57
2022/06/20 10:50:05;;;;;;;20.50;6.07;;;;;;;33.02;57.85;97338.47;5006521;28;20030;-58
2022/06/20 10:52:45;;;;;;;18.85;5.80;;;;;;;33.36;54.52;97351.66;5004879;28;20053;-57
2022/06/20 10:55:20;;;;;;;22.05;6.30;;;;;;;31.76;59.04;97355.47;5006352;28;20029;-57
2022/06/20 10:57:51;;;;;;;27.98;6.63;;;;;;;32.21;57.99;97347.41;5003646;28;20064;-57
2022/06/20 11:00:20;;;;;;;35.97;7.35;;;;;;;31.64;57.12;97341.84;5003547;28;20026;-58
2022/06/20 11:03:04;;;;;;;30.00;6.95;;;;;;;32.61;57.21;97345.28;5006169;28;20981;-56
2022/06/20 11:05:35;;;;;;;24.48;6.53;;;;;;;33.33;53.33;97339.44;5005514;28;20965;-57
2022/06/20 11:08:06;;;;;;;25.13;6.40;;;;;;;33.58;53.75;97339.34;5005905;28;20029;-57
2022/06/20 11:10:54;;;;;;;25.58;6.38;;;;;;;32.66;53.89;97333.81;5004760;28;20118;-57
2022/06/20 11:13:24;;;;;;;32.40;6.40;;;;;;;32.10;56.38;97329.22;5006127;28;20029;-58
2022/06/20 11:16:12;;;;;;;26.80;6.60;;;;;;;32.54;55.94;97340.94;5006937;28;20038;-57
2022/06/20 11:19:02;;;;;;;31.83;7.07;;;;;;;33.60;54.84;97344.50;5007760;28;20061;-57
2022/06/20 11:21:39;;;;;;;26.92;6.03;;;;;;;33.35;51.19;97352.72;5003117;28;20073;-58
2022/06/20 11:24:51;;;;;;;25.15;6.65;;;;;;;33.40;51.90;97356.41;5003988;28;20759;-57
2022/06/20 11:27:47;;;;;;;28.10;6.00;;;;;;;33.18;50.28;97350.59;4968171;28;20797;-57
2022/06/20 11:30:22;;;;;;;33.67;6.68;;;;;;;31.99;54.61;97358.47;5003522;28;20042;-57
2022/06/20 11:32:47;;;;;;;25.23;6.30;;;;;;;32.67;54.14;97364.34;5005492;28;20029;-58
2022/06/20 11:35:34;;;;;;;30.83;6.57;;;;;;;32.49;53.87;97371.28;5002972;28;20032;-57
2022/06/20 11:38:37;;;;;;;25.15;5.80;;;;;;;33.17;52.23;97365.16;5005497;28;20249;-58
2022/06/20 11:41:16;;;;;;;25.77;6.15;;;;;;;31.95;54.20;97376.16;5004309;28;20629;-58
2022/06/20 11:44:06;;;;;;;25.60;5.88;;;;;;;31.27;54.23;97380.06;5005770;28;20033;-58
2022/06/20 11:46:50;;;;;;;22.92;5.35;;;;;;;31.02;54.90;97377.19;5004403;28;20092;-57
2022/06/20 11:49:24;;;;;;;23.90;5.55;;;;;;;31.16;55.57;97379.91;5005518;28;20024;-57
2022/06/20 11:52:31;;;;;;;23.75;5.50;;;;;;;31.11;55.28;97392.09;5011318;28;20034;-57
2022/06/20 11:55:14;;;;;;;25.58;5.78;;;;;;;31.45;53.75;97392.03;5011653;28;20033;-57
2022/06/20 11:57:51;;;;;;;26.55;5.70;;;;;;;30.73;55.20;97389.19;5011562;28;20044;-57
2022/06/20 12:00:52;;;;;;;25.55;5.25;;;;;;;30.31;57.44;97381.25;5012085;28;20124;-58
2022/06/20 12:03:23;;;;;;;28.15;5.95;;;;;;;30.90;55.49;97395.00;4997944;28;20037;-59
2022/06/20 12:06:06;;;;;;;27.75;5.80;;;;;;;30.83;57.75;97402.25;5011672;28;20045;-57